Time;durP1;ratioP1;P1;durP2;ratioP2;P2;SDS_P1;SDS_P2;PMS_P1;PMS_P2;Temp;Humidity;BMP_temperature;BMP_pressure;BME280_temperature;BME280_humidity;BME280_pressure;Samples;Min_cycle;Max_cycle;Signal;HPM_P1;HPM_P2
2021/03/22 00:01:45;;;;;;;19.77;4.57;;;4.80;91.70;;;;;;5157847;27;20557;-86
2021/03/22 00:04:20;;;;;;;34.37;5.40;;;4.70;91.50;;;;;;5149965;27;20444;-86
2021/03/22 00:06:48;;;;;;;29.93;5.80;;;4.70;92.70;;;;;;5136993;27;20471;-86
2021/03/22 00:09:23;;;;;;;28.93;7.33;;;4.70;93.00;;;;;;5145004;27;20531;-85
2021/03/22 00:11:52;;;;;;;22.20;5.50;;;4.70;92.40;;;;;;5155357;27;20481;-87
2021/03/22 00:14:18;;;;;;;23.07;5.20;;;4.70;93.40;;;;;;5136930;27;20994;-85
2021/03/22 00:16:47;;;;;;;31.80;6.00;;;4.70;92.40;;;;;;5136797;27;21032;-84
2021/03/22 00:19:16;;;;;;;14.60;3.87;;;4.80;92.40;;;;;;5157064;27;20459;-87
2021/03/22 00:21:43;;;;;;;34.77;6.50;;;4.70;93.50;;;;;;5157741;27;20775;-86
2021/03/22 00:24:09;;;;;;;30.00;6.13;;;4.80;93.60;;;;;;5137727;27;20785;-87
2021/03/22 00:26:38;;;;;;;16.10;4.37;;;4.70;91.30;;;;;;5135732;27;20456;-86
2021/03/22 00:29:05;;;;;;;27.03;6.63;;;4.80;95.00;;;;;;5154491;27;20534;-85
2021/03/22 00:31:35;;;;;;;25.90;5.73;;;4.70;94.40;;;;;;5157501;27;20653;-87
2021/03/22 00:34:01;;;;;;;26.10;6.80;;;4.60;95.30;;;;;;5140108;27;20460;-87
2021/03/22 00:36:30;;;;;;;26.63;5.90;;;4.60;94.00;;;;;;5136570;27;20448;-87
2021/03/22 00:38:57;;;;;;;24.67;4.90;;;4.70;93.90;;;;;;5136094;27;20542;-87
2021/03/22 00:41:26;;;;;;;25.17;5.20;;;4.70;92.60;;;;;;5135629;27;20448;-86
2021/03/22 00:43:53;;;;;;;32.80;7.03;;;4.70;93.70;;;;;;5138821;27;20460;-86
2021/03/22 00:46:20;;;;;;;29.13;6.50;;;4.50;93.10;;;;;;5157061;27;20455;-87
2021/03/22 00:48:51;;;;;;;30.93;5.80;;;4.60;93.90;;;;;;5155431;27;21081;-87
2021/03/22 00:51:17;;;;;;;19.50;4.93;;;4.50;92.90;;;;;;5136226;27;20451;-86
2021/03/22 00:53:44;;;;;;;18.80;5.77;;;4.60;92.30;;;;;;5146441;27;20458;-85
2021/03/22 00:56:14;;;;;;;25.33;6.33;;;4.60;93.50;;;;;;5153249;27;21131;-86
2021/03/22 00:58:41;;;;;;;30.27;8.03;;;4.50;94.80;;;;;;5135841;27;20538;-87
2021/03/22 01:01:12;;;;;;;39.53;7.70;;;4.60;94.50;;;;;;5136384;27;20475;-88
2021/03/22 01:03:41;;;;;;;30.67;6.87;;;4.50;96.00;;;;;;5135964;27;21077;-85
2021/03/22 01:06:09;;;;;;;36.53;6.40;;;4.60;94.10;;;;;;5136842;27;20447;-84
2021/03/22 01:08:44;;;;;;;23.43;5.20;;;4.60;93.70;;;;;;5155990;27;20535;-85
2021/03/22 01:11:12;;;;;;;28.73;6.80;;;4.70;92.50;;;;;;5154976;27;20438;-86
2021/03/22 01:13:41;;;;;;;35.17;6.30;;;4.60;92.70;;;;;;5156675;27;20475;-86
2021/03/22 01:16:13;;;;;;;29.53;5.77;;;4.60;94.70;;;;;;5156210;27;20448;-87
2021/03/22 01:18:46;;;;;;;27.73;6.27;;;4.60;92.20;;;;;;5135573;27;20440;-87
2021/03/22 01:21:16;;;;;;;18.93;5.70;;;4.70;91.60;;;;;;5135380;27;20456;-86
2021/03/22 01:23:45;;;;;;;24.00;7.07;;;4.70;92.70;;;;;;5147126;27;20487;-85
2021/03/22 01:26:14;;;;;;;31.87;7.43;;;4.60;92.50;;;;;;5134485;27;20488;-86
2021/03/22 01:28:45;;;;;;;27.67;7.20;;;4.70;92.00;;;;;;5135399;27;20484;-86
2021/03/22 01:31:15;;;;;;;35.90;9.63;;;4.60;93.60;;;;;;5155133;27;20486;-87
2021/03/22 01:33:43;;;;;;;17.50;5.00;;;4.60;93.30;;;;;;5154356;27;20455;-86
2021/03/22 01:36:15;;;;;;;23.00;6.40;;;4.50;93.20;;;;;;5154920;27;20483;-86
2021/03/22 01:38:43;;;;;;;22.30;5.13;;;4.60;94.60;;;;;;5154666;27;20455;-87
2021/03/22 01:41:45;;;;;;;30.43;7.03;;;4.50;93.10;;;;;;5134110;27;20455;-85
2021/03/22 01:44:18;;;;;;;25.53;7.37;;;4.30;96.40;;;;;;5132736;27;20550;-85
2021/03/22 01:46:50;;;;;;;23.47;6.43;;;4.40;98.30;;;;;;5155755;27;20491;-86
2021/03/22 01:49:20;;;;;;;26.90;6.40;;;4.30;99.90;;;;;;5150658;27;20842;-85
2021/03/22 01:51:48;;;;;;;20.10;6.43;;;4.30;99.90;;;;;;5134082;27;20451;-85
2021/03/22 01:54:15;;;;;;;28.83;8.17;;;4.30;99.90;;;;;;5138658;27;20455;-88
2021/03/22 01:56:52;;;;;;;37.30;8.03;;;4.40;99.90;;;;;;5154856;27;20460;-85
2021/03/22 01:59:27;;;;;;;24.40;7.43;;;4.20;99.90;;;;;;5151196;27;20472;-87
2021/03/22 02:01:59;;;;;;;28.00;10.20;;;4.10;99.90;;;;;;5135446;27;20463;-86
2021/03/22 02:04:27;;;;;;;34.50;10.77;;;4.10;99.90;;;;;;5155709;27;20457;-85
2021/03/22 02:06:55;;;;;;;28.83;15.53;;;4.10;99.90;;;;;;5154823;27;20479;-86
2021/03/22 02:09:27;;;;;;;44.43;18.33;;;3.90;99.90;;;;;;5155281;27;20517;-87
2021/03/22 02:11:54;;;;;;;41.07;25.40;;;3.80;99.90;;;;;;5153943;27;20538;-86
2021/03/22 02:14:20;;;;;;;33.93;27.90;;;3.70;99.90;;;;;;5134658;27;20467;-86
2021/03/22 02:16:59;;;;;;;37.47;33.63;;;3.70;99.90;;;;;;5134569;27;20451;-85
2021/03/22 02:20:02;;;;;;;37.70;32.03;;;3.60;99.90;;;;;;5134307;27;21021;-86
2021/03/22 02:22:51;;;;;;;52.60;46.83;;;3.40;99.90;;;;;;5137810;27;20446;-86
2021/03/22 02:25:31;;;;;;;56.33;52.40;;;3.30;99.90;;;;;;5154422;27;20500;-86
2021/03/22 02:28:22;;;;;;;42.57;39.07;;;3.40;99.90;;;;;;5147751;27;20479;-87
2021/03/22 02:31:24;;;;;;;54.67;50.07;;;3.40;99.90;;;;;;5140488;27;20510;-86
2021/03/22 02:34:18;;;;;;;78.07;73.13;;;3.40;99.90;;;;;;5155102;27;20483;-85
2021/03/22 02:37:06;;;;;;;65.80;60.20;;;3.50;99.90;;;;;;5140845;27;20487;-86
2021/03/22 02:39:38;;;;;;;82.27;77.00;;;3.50;99.90;;;;;;5134161;27;20454;-87
2021/03/22 02:42:08;;;;;;;81.07;74.77;;;3.50;99.90;;;;;;5148890;27;20812;-85
2021/03/22 02:44:38;;;;;;;90.80;84.37;;;3.50;99.90;;;;;;5154921;27;20550;-87
2021/03/22 02:47:10;;;;;;;87.37;81.60;;;3.70;99.90;;;;;;5139277;27;20448;-86
2021/03/22 02:49:40;;;;;;;77.37;71.57;;;3.70;99.90;;;;;;5098942;27;20478;-86
2021/03/22 02:52:15;;;;;;;84.00;78.20;;;3.70;99.90;;;;;;5154823;27;20455;-86
2021/03/22 02:54:56;;;;;;;80.73;74.47;;;3.70;99.90;;;;;;5154676;27;20506;-87
2021/03/22 02:57:29;;;;;;;79.70;74.70;;;3.80;99.90;;;;;;5154047;27;20447;-86
2021/03/22 03:00:10;;;;;;;83.97;78.57;;;3.80;99.90;;;;;;5140494;27;20468;-87
2021/03/22 03:02:40;;;;;;;64.53;58.73;;;3.80;99.90;;;;;;5133847;27;20941;-86
2021/03/22 03:05:12;;;;;;;67.40;62.50;;;3.80;99.90;;;;;;5148376;27;20971;-85
2021/03/22 03:07:39;;;;;;;71.63;66.27;;;3.80;99.90;;;;;;5154135;27;20478;-86
2021/03/22 03:10:08;;;;;;;75.47;68.90;;;3.80;99.90;;;;;;5152644;27;20503;-85
2021/03/22 03:12:35;;;;;;;80.77;73.37;;;3.80;99.90;;;;;;5149268;27;20483;-87
2021/03/22 03:15:04;;;;;;;69.13;64.90;;;3.90;99.90;;;;;;5133745;27;20452;-86
2021/03/22 03:17:30;;;;;;;74.07;67.83;;;3.90;99.90;;;;;;5136905;27;20826;-87
2021/03/22 03:19:57;;;;;;;70.37;66.10;;;3.90;99.90;;;;;;5154517;27;20454;-87
2021/03/22 03:22:24;;;;;;;69.10;64.30;;;3.80;99.90;;;;;;5152266;27;20825;-85
2021/03/22 03:24:56;;;;;;;67.30;62.20;;;3.90;99.90;;;;;;5133738;27;20451;-85
2021/03/22 03:27:22;;;;;;;58.47;53.30;;;3.90;99.90;;;;;;5132866;27;20452;-86
2021/03/22 03:29:49;;;;;;;71.43;66.33;;;3.80;99.90;;;;;;5133766;27;20532;-87
2021/03/22 03:32:20;;;;;;;59.67;56.30;;;3.80;99.90;;;;;;5133806;27;20451;-87
2021/03/22 03:34:48;;;;;;;59.90;55.53;;;3.90;99.90;;;;;;5133668;27;20479;-87
2021/03/22 03:37:17;;;;;;;71.67;66.30;;;3.70;99.90;;;;;;5147556;27;20447;-84
2021/03/22 03:39:44;;;;;;;81.67;75.90;;;3.80;99.90;;;;;;5145146;27;20455;-81
2021/03/22 03:42:14;;;;;;;85.20;80.10;;;3.60;99.90;;;;;;5136393;27;20527;-86
2021/03/22 03:44:42;;;;;;;79.03;73.33;;;3.40;99.90;;;;;;5145604;27;20456;-85
2021/03/22 03:47:10;;;;;;;103.73;96.17;;;3.30;99.90;;;;;;5133479;27;20460;-86
2021/03/22 03:49:37;;;;;;;137.40;129.17;;;3.20;99.90;;;;;;5148936;27;20477;-86
2021/03/22 03:52:05;;;;;;;164.80;155.20;;;3.10;99.90;;;;;;5154031;27;20446;-84
2021/03/22 03:54:32;;;;;;;168.87;160.10;;;3.00;99.90;;;;;;5148416;27;20452;-86
2021/03/22 03:57:00;;;;;;;184.30;173.40;;;3.00;99.90;;;;;;5137622;27;20472;-88
2021/03/22 03:59:26;;;;;;;204.33;193.93;;;2.90;99.90;;;;;;5147137;27;20532;-85
2021/03/22 04:01:53;;;;;;;229.53;211.90;;;2.70;99.90;;;;;;5143020;27;20444;-85
2021/03/22 04:04:19;;;;;;;228.40;216.80;;;2.60;99.90;;;;;;5149707;27;20480;-85
2021/03/22 04:06:46;;;;;;;263.60;252.00;;;2.60;99.90;;;;;;5145994;27;20981;-85
2021/03/22 04:09:18;;;;;;;270.77;258.77;;;2.60;99.90;;;;;;5148381;27;20514;-84
2021/03/22 04:11:49;;;;;;;273.13;260.97;;;2.60;99.90;;;;;;5144554;27;20443;-84
2021/03/22 04:14:19;;;;;;;302.00;288.77;;;2.30;99.90;;;;;;5140653;27;20442;-84
2021/03/22 04:16:46;;;;;;;315.90;302.10;;;2.40;99.90;;;;;;5146736;27;20943;-85
2021/03/22 04:19:14;;;;;;;302.30;288.83;;;2.40;99.90;;;;;;5148014;27;20984;-84
2021/03/22 04:21:47;;;;;;;316.23;301.40;;;2.30;99.90;;;;;;5151121;27;20961;-84
2021/03/22 04:24:28;;;;;;;324.60;310.10;;;2.10;99.90;;;;;;5152878;27;20450;-81
2021/03/22 04:27:08;;;;;;;327.93;313.40;;;2.10;99.90;;;;;;5128196;27;20871;-81
2021/03/22 04:29:38;;;;;;;345.73;330.83;;;2.00;99.90;;;;;;5136341;27;20511;-84
2021/03/22 04:32:05;;;;;;;364.27;348.90;;;2.00;99.90;;;;;;5145208;27;20459;-85
2021/03/22 04:34:32;;;;;;;360.73;345.13;;;2.10;99.90;;;;;;5143307;27;20475;-84
2021/03/22 04:36:58;;;;;;;376.60;359.67;;;2.00;99.90;;;;;;5151381;27;20459;-83
2021/03/22 04:39:25;;;;;;;387.40;370.20;;;2.00;99.90;;;;;;5150802;27;20514;-88
2021/03/22 04:41:51;;;;;;;399.10;381.07;;;2.00;99.90;;;;;;5147178;27;20444;-85
2021/03/22 04:44:18;;;;;;;403.30;386.40;;;2.00;99.90;;;;;;5138290;27;20687;-84
2021/03/22 04:46:48;;;;;;;398.38;380.95;;;2.20;99.90;;;;;;5146436;27;20452;-83
2021/03/22 04:49:14;;;;;;;406.83;390.07;;;2.50;99.90;;;;;;5138413;27;20210;-84
2021/03/22 04:51:43;;;;;;;405.30;389.00;;;2.70;99.90;;;;;;5149856;27;20554;-84
2021/03/22 04:54:09;;;;;;;427.13;407.40;;;2.80;99.90;;;;;;5146261;27;20484;-85
2021/03/22 04:56:36;;;;;;;414.20;395.73;;;3.00;99.90;;;;;;5135266;27;20457;-87
2021/03/22 04:59:04;;;;;;;414.47;395.93;;;3.10;99.90;;;;;;5146462;27;20474;-84
2021/03/22 05:01:35;;;;;;;415.03;396.97;;;3.20;99.90;;;;;;5146134;27;20463;-85
2021/03/22 05:04:04;;;;;;;403.40;385.70;;;3.30;99.90;;;;;;5156452;27;20443;-84
2021/03/22 05:06:31;;;;;;;381.27;363.90;;;3.40;99.90;;;;;;5154985;27;20483;-85
2021/03/22 05:08:59;;;;;;;400.20;382.80;;;3.50;99.90;;;;;;5143232;27;20504;-83
2021/03/22 05:11:52;;;;;;;406.60;387.53;;;3.50;99.90;;;;;;5146106;27;20448;-84
2021/03/22 05:14:21;;;;;;;340.10;324.00;;;3.50;99.90;;;;;;5136109;27;20491;-83
2021/03/22 05:16:49;;;;;;;294.97;278.90;;;3.50;99.90;;;;;;5136062;27;20530;-86
2021/03/22 05:19:16;;;;;;;276.90;263.77;;;3.60;99.90;;;;;;5139083;27;20474;-85
2021/03/22 05:21:43;;;;;;;275.73;262.47;;;3.60;99.90;;;;;;5145376;27;20444;-84
2021/03/22 05:24:11;;;;;;;247.23;234.53;;;3.60;99.90;;;;;;5148148;27;20448;-85
2021/03/22 05:26:37;;;;;;;251.83;238.17;;;3.70;99.90;;;;;;5134629;27;20504;-83
2021/03/22 05:29:16;;;;;;;203.20;192.53;;;3.60;99.90;;;;;;5142356;27;20515;-81
2021/03/22 05:31:43;;;;;;;183.90;174.50;;;3.60;99.90;;;;;;5143620;27;20456;-82
2021/03/22 05:34:09;;;;;;;214.27;201.67;;;3.50;99.90;;;;;;5148723;27;20575;-83
2021/03/22 05:36:36;;;;;;;227.73;213.43;;;3.40;99.90;;;;;;5155291;27;20455;-82
2021/03/22 05:39:04;;;;;;;243.93;230.63;;;3.50;99.90;;;;;;5155646;27;20443;-83
2021/03/22 05:41:36;;;;;;;250.47;236.53;;;3.50;99.90;;;;;;5150729;27;20861;-82
2021/03/22 05:44:16;;;;;;;225.03;212.27;;;3.50;99.90;;;;;;5135166;27;20451;-84
2021/03/22 05:46:52;;;;;;;239.63;225.50;;;3.50;99.90;;;;;;5147094;27;20960;-83
2021/03/22 05:49:34;;;;;;;240.07;224.33;;;3.50;99.90;;;;;;5155816;27;20478;-83
2021/03/22 05:52:22;;;;;;;235.80;223.37;;;3.40;99.90;;;;;;5148206;27;20535;-83
2021/03/22 05:55:03;;;;;;;251.27;236.77;;;3.50;99.90;;;;;;5100289;27;20498;-83
2021/03/22 05:57:48;;;;;;;260.07;244.57;;;3.50;99.90;;;;;;5141150;27;20554;-82
2021/03/22 06:00:21;;;;;;;249.13;235.53;;;3.50;99.90;;;;;;5142939;27;20502;-83
2021/03/22 06:02:55;;;;;;;230.23;218.23;;;3.60;99.90;;;;;;5152922;27;20480;-84
2021/03/22 06:05:34;;;;;;;240.43;227.40;;;3.60;99.90;;;;;;5155588;27;20490;-83
2021/03/22 06:08:21;;;;;;;240.13;226.43;;;3.70;99.90;;;;;;5147840;27;20510;-81
2021/03/22 06:10:51;;;;;;;250.73;234.77;;;3.70;99.90;;;;;;5134645;27;20454;-82
2021/03/22 06:13:23;;;;;;;237.43;225.27;;;3.80;99.90;;;;;;5135778;27;20452;-82
2021/03/22 06:15:53;;;;;;;230.30;217.80;;;3.80;99.90;;;;;;5140281;27;20444;-82
2021/03/22 06:18:26;;;;;;;237.37;224.27;;;3.80;99.90;;;;;;5133918;27;21032;-84
2021/03/22 06:20:54;;;;;;;249.03;236.23;;;3.80;99.90;;;;;;5134047;27;20946;-83
2021/03/22 06:23:37;;;;;;;245.17;231.03;;;3.90;99.90;;;;;;5133787;27;20531;-84
2021/03/22 06:26:04;;;;;;;214.93;201.43;;;3.90;99.90;;;;;;5139192;27;20535;-81
2021/03/22 06:28:38;;;;;;;199.23;187.13;;;4.10;99.90;;;;;;5140483;27;20476;-83
2021/03/22 06:31:08;;;;;;;205.77;194.10;;;4.00;99.90;;;;;;5145855;27;20800;-84
2021/03/22 06:33:38;;;;;;;200.30;189.13;;;4.20;99.90;;;;;;5135172;27;20518;-82
2021/03/22 06:36:06;;;;;;;176.00;165.70;;;4.20;99.90;;;;;;5143431;27;20526;-83
2021/03/22 06:38:33;;;;;;;164.10;154.10;;;4.30;99.90;;;;;;5154513;27;20457;-82
2021/03/22 06:41:21;;;;;;;143.90;135.47;;;4.30;99.90;;;;;;5150083;27;20472;-85
2021/03/22 06:43:54;;;;;;;149.60;140.10;;;4.40;99.90;;;;;;5136695;27;20954;-79
2021/03/22 06:46:20;;;;;;;127.87;121.47;;;4.50;99.90;;;;;;5136454;27;20443;-83
2021/03/22 06:48:57;;;;;;;131.33;121.20;;;4.80;99.90;;;;;;5145510;27;20470;-80
2021/03/22 06:51:23;;;;;;;113.87;106.17;;;4.90;99.90;;;;;;5133905;27;20452;-80
2021/03/22 06:53:55;;;;;;;68.23;62.67;;;4.90;99.90;;;;;;5134097;27;21017;-81
2021/03/22 06:56:25;;;;;;;49.43;44.23;;;5.00;99.90;;;;;;5132967;27;20484;-81
2021/03/22 06:59:07;;;;;;;52.17;47.10;;;4.90;99.90;;;;;;5133958;27;20558;-82
2021/03/22 07:01:33;;;;;;;43.63;40.00;;;5.10;99.90;;;;;;5134337;27;20455;-82
2021/03/22 07:04:16;;;;;;;47.93;43.10;;;5.00;99.90;;;;;;5133928;27;20496;-82
2021/03/22 07:06:43;;;;;;;45.93;36.00;;;5.00;99.90;;;;;;5133728;27;20444;-83
2021/03/22 07:09:30;;;;;;;49.00;44.43;;;5.10;99.90;;;;;;5133870;27;20582;-83
2021/03/22 07:11:56;;;;;;;37.57;33.30;;;5.20;99.90;;;;;;5132878;27;20470;-83
2021/03/22 07:14:25;;;;;;;38.87;24.83;;;5.20;99.90;;;;;;5133836;27;20462;-83
2021/03/22 07:17:04;;;;;;;27.60;22.20;;;5.10;99.90;;;;;;5134082;27;20872;-82
2021/03/22 07:19:31;;;;;;;32.57;24.97;;;5.10;99.90;;;;;;5133726;27;20500;-83
2021/03/22 07:22:01;;;;;;;42.70;21.27;;;5.10;99.90;;;;;;5133873;27;20534;-83
2021/03/22 07:24:47;;;;;;;32.57;29.17;;;5.10;99.90;;;;;;5133856;27;20531;-83
2021/03/22 07:27:24;;;;;;;37.73;30.93;;;5.20;99.90;;;;;;5132513;27;20459;-83
2021/03/22 07:30:18;;;;;;;37.53;29.00;;;5.40;99.90;;;;;;5133735;27;20482;-83
2021/03/22 07:33:20;;;;;;;24.47;18.63;;;5.40;99.90;;;;;;5133707;27;20823;-83
2021/03/22 07:36:07;;;;;;;28.13;22.70;;;5.30;99.90;;;;;;5133618;27;20450;-83
2021/03/22 07:39:17;;;;;;;27.73;15.40;;;5.40;99.90;;;;;;5134620;27;20508;-84
2021/03/22 07:42:31;;;;;;;26.90;13.03;;;5.30;99.90;;;;;;5132728;27;20482;-83
2021/03/22 07:45:41;;;;;;;23.33;10.57;;;5.30;99.90;;;;;;5133760;27;20455;-84
2021/03/22 07:48:30;;;;;;;20.50;13.70;;;5.40;99.90;;;;;;5084891;27;20467;-83
2021/03/22 07:51:11;;;;;;;27.43;11.97;;;5.60;99.90;;;;;;5136573;27;20499;-83
2021/03/22 07:53:43;;;;;;;22.20;10.90;;;5.50;99.90;;;;;;5137549;27;20443;-83
2021/03/22 07:56:19;;;;;;;17.47;10.07;;;5.50;99.90;;;;;;5136132;27;20459;-84
2021/03/22 07:58:59;;;;;;;33.10;14.77;;;5.50;99.90;;;;;;5137394;27;20519;-84
2021/03/22 08:01:45;;;;;;;21.93;9.73;;;5.70;99.90;;;;;;5137171;27;20454;-84
2021/03/22 08:04:41;;;;;;;16.67;7.60;;;5.70;99.90;;;;;;5133217;27;20806;-84
2021/03/22 08:07:20;;;;;;;24.87;9.00;;;5.90;99.90;;;;;;5133067;27;20503;-84
2021/03/22 08:10:02;;;;;;;16.67;9.20;;;5.90;99.90;;;;;;5137000;27;20490;-84
2021/03/22 08:12:38;;;;;;;19.90;7.67;;;5.90;99.90;;;;;;5136702;27;20448;-84
2021/03/22 08:15:24;;;;;;;25.10;9.40;;;6.10;99.90;;;;;;5136900;27;20544;-84
2021/03/22 08:18:10;;;;;;;33.90;11.03;;;6.10;99.90;;;;;;5136980;27;20795;-84
2021/03/22 08:20:48;;;;;;;28.40;8.53;;;6.10;99.90;;;;;;5137001;27;20503;-84
2021/03/22 08:23:23;;;;;;;16.00;6.40;;;6.30;99.90;;;;;;5136866;27;20507;-84
2021/03/22 08:25:55;;;;;;;21.87;8.80;;;6.50;99.90;;;;;;5135729;27;20451;-84
2021/03/22 08:28:31;;;;;;;17.77;6.53;;;6.50;95.60;;;;;;5136689;27;20480;-85
2021/03/22 08:31:09;;;;;;;17.67;5.87;;;6.80;88.80;;;;;;5136665;27;20954;-85
2021/03/22 08:33:45;;;;;;;20.33;6.30;;;7.10;86.60;;;;;;5136860;27;20453;-84
2021/03/22 08:36:42;;;;;;;17.70;6.93;;;7.20;77.40;;;;;;5136981;27;20857;-84
2021/03/22 08:39:27;;;;;;;13.30;3.80;;;7.50;75.80;;;;;;5136660;27;20558;-84
2021/03/22 08:42:10;;;;;;;21.80;6.93;;;7.20;65.00;;;;;;5135436;27;20466;-84
2021/03/22 08:44:41;;;;;;;13.60;4.50;;;7.00;70.10;;;;;;5136515;27;20508;-84
2021/03/22 08:47:37;;;;;;;12.60;3.80;;;6.90;63.50;;;;;;5136541;27;20800;-85
2021/03/22 08:50:18;;;;;;;13.60;4.73;;;7.00;62.50;;;;;;5136360;27;20563;-84
2021/03/22 08:52:55;;;;;;;17.93;3.80;;;7.40;59.70;;;;;;5136464;27;20457;-85
2021/03/22 08:55:54;;;;;;;9.70;3.40;;;7.90;55.60;;;;;;5135162;27;20485;-84
2021/03/22 08:59:09;;;;;;;18.20;7.50;;;8.20;57.60;;;;;;5136229;27;20471;-84
2021/03/22 09:04:35;;;;;;;18.53;5.00;;;7.00;62.60;;;;;;5132382;27;20451;-85
2021/03/22 09:07:33;;;;;;;21.03;7.03;;;6.80;67.40;;;;;;5135773;27;20569;-85
2021/03/22 09:10:36;;;;;;;14.40;5.73;;;6.60;64.20;;;;;;5148107;27;20485;-85
2021/03/22 09:16:41;;;;;;;49.43;7.00;;;6.70;67.30;;;;;;5138996;27;20440;-83
2021/03/22 09:19:40;;;;;;;13.10;5.60;;;6.60;63.80;;;;;;5134298;27;20480;-85
2021/03/22 09:22:51;;;;;;;19.23;5.53;;;6.80;65.90;;;;;;5148225;27;20487;-84
2021/03/22 09:26:02;;;;;;;17.23;5.70;;;6.70;62.60;;;;;;5069938;28;20500;-85
2021/03/22 09:29:21;;;;;;;19.40;5.37;;;6.90;67.30;;;;;;5063462;28;20906;-84
2021/03/22 09:31:47;;;;;;;11.93;4.70;;;7.40;62.90;;;;;;5152226;27;21047;-83
2021/03/22 09:34:34;;;;;;;16.40;6.23;;;8.10;52.30;;;;;;5148148;27;20481;-85
2021/03/22 09:37:42;;;;;;;13.37;3.17;;;8.40;47.30;;;;;;5135740;27;20513;-85
2021/03/22 09:44:11;;;;;;;21.57;6.33;;;8.30;36.90;;;;;;5094417;28;20561;-82
2021/03/22 09:46:39;;;;;;;25.37;7.57;;;8.00;46.20;;;;;;5094428;28;20460;-81
2021/03/22 09:49:26;;;;;;;21.17;7.70;;;7.70;48.20;;;;;;5096127;28;20481;-81
2021/03/22 09:52:17;;;;;;;14.67;5.30;;;7.70;48.60;;;;;;5093979;28;20861;-81
2021/03/22 09:54:45;;;;;;;24.60;4.80;;;7.60;50.60;;;;;;5089550;28;20543;-82
2021/03/22 09:57:43;;;;;;;14.87;5.50;;;7.60;51.70;;;;;;5093851;28;20450;-82
2021/03/22 10:00:52;;;;;;;27.47;4.90;;;7.70;51.50;;;;;;5093664;28;20583;-85
2021/03/22 10:03:41;;;;;;;14.00;4.70;;;8.40;43.50;;;;;;5093791;28;20604;-85
2021/03/22 10:06:44;;;;;;;13.43;3.63;;;8.50;40.00;;;;;;5094228;28;20447;-84
2021/03/22 10:09:31;;;;;;;11.97;3.60;;;8.40;38.40;;;;;;5092617;28;20484;-83
2021/03/22 10:11:59;;;;;;;16.40;5.13;;;8.30;45.30;;;;;;5093336;28;20852;-83
2021/03/22 10:14:30;;;;;;;9.60;2.80;;;8.30;38.60;;;;;;5093689;28;20485;-83
2021/03/22 10:16:59;;;;;;;17.10;4.80;;;8.10;37.30;;;;;;5093896;28;20457;-78
2021/03/22 10:19:29;;;;;;;19.50;4.20;;;8.20;41.80;;;;;;5093147;28;20492;-83
2021/03/22 10:21:58;;;;;;;13.40;3.10;;;8.10;37.00;;;;;;5092852;28;20982;-82
2021/03/22 10:24:35;;;;;;;10.37;2.53;;;8.20;35.20;;;;;;5083600;28;20484;-84
2021/03/22 10:27:03;;;;;;;11.27;3.10;;;8.20;33.90;;;;;;5073460;28;20446;-84
2021/03/22 10:30:31;;;;;;;;;;;;;;;;;;;;;
2021/03/22 10:33:01;;;;;;;11.03;3.37;;;8.20;31.40;;;;;;5063904;28;20455;-84
2021/03/22 10:39:25;;;;;;;10.40;2.33;;;8.40;33.60;;;;;;5097881;28;20468;-84
2021/03/22 10:41:52;;;;;;;20.60;3.83;;;8.70;28.60;;;;;;5108216;27;20521;-85
2021/03/22 10:44:24;;;;;;;12.20;3.60;;;9.40;28.40;;;;;;5098754;28;20449;-83
2021/03/22 10:47:06;;;;;;;11.20;3.00;;;9.40;26.20;;;;;;5097036;28;20456;-84
2021/03/22 10:49:39;;;;;;;12.60;3.53;;;9.10;25.00;;;;;;5100245;28;20479;-85
2021/03/22 10:58:40;;;;;;;12.00;3.30;;;8.40;30.90;;;;;;4959775;28;20450;-82
2021/03/22 11:01:12;;;;;;;13.70;3.60;;;8.10;29.80;;;;;;5074115;28;20786;-84
2021/03/22 11:04:00;;;;;;;13.13;2.43;;;8.10;29.60;;;;;;5101031;28;20460;-84
2021/03/22 11:10:27;;;;;;;;;;;;;;;;;;;;;
2021/03/22 11:16:50;;;;;;;9.73;3.20;;;7.80;30.50;;;;;;5090755;28;20486;-83
2021/03/22 11:23:26;;;;;;;14.30;3.83;;;8.20;36.30;;;;;;4917642;29;20489;-86
2021/03/22 11:26:10;;;;;;;10.37;4.03;;;8.40;33.10;;;;;;4988740;28;20448;-86
2021/03/22 11:28:40;;;;;;;16.70;4.70;;;8.50;30.20;;;;;;5109414;28;20503;-86
2021/03/22 11:31:18;;;;;;;19.37;4.10;;;8.80;27.60;;;;;;5113575;28;20452;-86
2021/03/22 11:34:03;;;;;;;11.37;4.10;;;8.80;28.70;;;;;;5117668;28;20456;-86
2021/03/22 11:36:40;;;;;;;13.23;3.90;;;8.60;28.80;;;;;;5117541;28;20447;-86
2021/03/22 11:39:27;;;;;;;14.40;4.10;;;8.40;28.10;;;;;;5116167;28;20467;-85
2021/03/22 11:42:16;;;;;;;14.70;3.37;;;8.40;28.70;;;;;;5117252;28;20958;-85
2021/03/22 11:44:53;;;;;;;10.27;3.03;;;8.30;30.80;;;;;;5117309;28;20460;-86
2021/03/22 11:47:46;;;;;;;9.60;2.47;;;8.10;34.40;;;;;;5117326;28;20456;-85
2021/03/22 11:50:41;;;;;;;16.80;4.40;;;8.00;33.40;;;;;;5116968;28;20555;-85
2021/03/22 11:53:17;;;;;;;12.07;2.83;;;7.90;32.20;;;;;;5053856;28;20454;-86
2021/03/22 11:55:47;;;;;;;11.20;4.00;;;7.90;34.10;;;;;;5053064;28;20451;-86
2021/03/22 11:58:41;;;;;;;11.17;3.90;;;8.00;34.20;;;;;;5110302;28;20459;-86
2021/03/22 12:01:33;;;;;;;12.83;4.70;;;8.00;35.30;;;;;;5116892;28;20483;-86
2021/03/22 12:04:28;;;;;;;;;;;;;;;;;;;;;
2021/03/22 12:07:10;;;;;;;12.23;3.50;;;8.00;29.40;;;;;;5116571;28;20446;-86
2021/03/22 12:09:50;;;;;;;12.77;3.60;;;8.30;31.70;;;;;;5115362;28;20487;-85
2021/03/22 12:12:37;;;;;;;15.37;5.13;;;8.30;28.60;;;;;;5116692;27;20487;-86
2021/03/22 12:15:20;;;;;;;18.30;5.03;;;8.40;30.10;;;;;;5116613;28;20453;-86
2021/03/22 12:18:08;;;;;;;;;;;;;;;;;;;;;
2021/03/22 12:20:38;;;;;;;17.80;6.70;;;8.20;36.30;;;;;;5116134;28;20459;-86
2021/03/22 12:26:46;;;;;;;13.97;4.50;;;8.40;38.00;;;;;;5012122;28;20536;-86
2021/03/22 12:32:57;;;;;;;14.57;4.25;;;8.40;30.90;;;;;;5065815;27;20859;-84
2021/03/22 12:35:46;;;;;;;14.10;3.83;;;8.60;33.60;;;;;;5110870;28;20283;-86
2021/03/22 12:38:15;;;;;;;10.60;3.00;;;8.80;33.10;;;;;;5111663;27;20488;-86
2021/03/22 12:40:53;;;;;;;;;;;;;;;;;;;;;
2021/03/22 12:43:25;;;;;;;13.30;3.47;;;9.10;32.00;;;;;;5112202;27;20492;-83
2021/03/22 12:45:56;;;;;;;15.83;3.93;;;9.10;28.80;;;;;;5116101;28;20502;-86
2021/03/22 12:49:13;;;;;;;12.40;4.80;;;9.10;26.50;;;;;;5116081;28;20485;-84
2021/03/22 12:56:10;;;;;;;;;;;;;;;;;;;;;
2021/03/22 12:58:48;;;;;;;13.80;3.57;;;9.20;27.20;;;;;;4984188;28;20494;-84
2021/03/22 13:01:21;;;;;;;11.50;3.07;;;9.20;27.20;;;;;;5052898;28;21008;-84
2021/03/22 13:03:56;;;;;;;13.63;3.17;;;9.10;27.10;;;;;;5053090;28;20452;-84
2021/03/22 13:13:33;;;;;;;9.37;2.20;;;8.70;24.30;;;;;;4928692;29;20446;-84
2021/03/22 13:16:06;;;;;;;10.20;3.10;;;8.60;24.50;;;;;;5062568;28;20460;-85
2021/03/22 13:18:36;;;;;;;13.60;3.23;;;8.50;32.10;;;;;;5095047;28;20819;-83
2021/03/22 13:24:34;;;;;;;9.63;2.83;;;8.40;29.40;;;;;;5021298;28;20487;-84
2021/03/22 13:27:14;;;;;;;10.60;2.67;;;8.40;32.00;;;;;;5094864;28;20452;-83
2021/03/22 13:29:52;;;;;;;16.53;5.07;;;8.30;28.90;;;;;;5094745;28;20469;-84
2021/03/22 13:32:24;;;;;;;11.00;3.87;;;8.20;29.60;;;;;;5094936;28;20449;-84
2021/03/22 13:35:08;;;;;;;10.70;2.80;;;8.50;31.40;;;;;;5094738;28;20464;-84
2021/03/22 13:40:12;;;;;;;12.60;4.50;;;8.40;29.30;;;;;;5511899;22;20585;-84
2021/03/22 13:42:40;;;;;;;10.37;3.37;;;8.40;30.10;;;;;;5054480;28;20447;-84
2021/03/22 13:45:16;;;;;;;11.57;3.47;;;8.50;30.00;;;;;;5054352;28;20897;-83
2021/03/22 13:47:45;;;;;;;12.77;3.33;;;8.50;29.90;;;;;;5053201;28;20457;-84
2021/03/22 13:50:18;;;;;;;13.90;3.30;;;8.60;31.40;;;;;;5053984;28;20490;-84
2021/03/22 13:53:04;;;;;;;11.47;3.60;;;8.60;29.30;;;;;;5054321;28;20448;-84
2021/03/22 13:55:38;;;;;;;13.33;3.53;;;8.50;27.90;;;;;;5052930;28;20450;-84
2021/03/22 13:58:25;;;;;;;10.30;3.50;;;8.50;29.80;;;;;;5053997;28;20451;-84
2021/03/22 14:00:59;;;;;;;26.63;3.20;;;8.50;29.10;;;;;;5053978;28;20497;-84
2021/03/22 14:03:44;;;;;;;9.50;2.80;;;8.60;28.90;;;;;;5053865;28;20458;-83
2021/03/22 14:06:21;;;;;;;11.53;3.43;;;8.60;25.40;;;;;;5053741;28;20451;-84
2021/03/22 14:08:51;;;;;;;13.60;3.30;;;8.60;27.40;;;;;;5052543;28;20846;-83
2021/03/22 14:11:24;;;;;;;9.60;3.00;;;8.50;28.40;;;;;;5053786;28;20588;-85
2021/03/22 14:14:00;;;;;;;9.73;2.37;;;8.40;26.70;;;;;;5053593;28;20457;-84
2021/03/22 14:16:27;;;;;;;9.33;3.00;;;8.40;24.70;;;;;;5053543;28;20547;-83
2021/03/22 14:19:01;;;;;;;13.23;3.17;;;8.40;24.60;;;;;;5053636;28;20459;-84
2021/03/22 14:21:30;;;;;;;11.33;2.43;;;8.30;26.60;;;;;;5052106;28;20879;-84
2021/03/22 14:24:10;;;;;;;9.97;2.20;;;8.30;26.70;;;;;;5051215;28;20459;-84
2021/03/22 14:26:38;;;;;;;9.07;2.43;;;8.40;27.70;;;;;;5052618;28;20461;-84
2021/03/22 14:29:14;;;;;;;8.00;2.40;;;8.30;26.60;;;;;;5052205;28;20558;-84